Time;durP1;ratioP1;P1;durP2;ratioP2;P2;SDS_P1;SDS_P2;PMS_P1;PMS_P2;Temp;Humidity;BMP_temperature;BMP_pressure;BME280_temperature;BME280_humidity;BME280_pressure;Samples;Min_cycle;Max_cycle;Signal;HPM_P1;HPM_P2
2023/12/03 00:01:30;;;;;;;47.30;22.45;;;;;;;0.98;100.00;100270.38;4964298;28;20098;-45
2023/12/03 00:03:58;;;;;;;62.65;23.75;;;;;;;1.01;100.00;100267.03;4943913;29;20138;-44
2023/12/03 00:06:25;;;;;;;95.28;23.98;;;;;;;1.04;100.00;100267.28;4952776;29;20066;-48
2023/12/03 00:08:53;;;;;;;70.65;24.42;;;;;;;1.09;100.00;100263.66;4967204;28;20050;-47
2023/12/03 00:11:21;;;;;;;72.05;21.58;;;;;;;1.12;100.00;100268.53;4973038;28;20750;-46
2023/12/03 00:13:49;;;;;;;111.43;25.05;;;;;;;1.16;100.00;100264.13;4954364;28;20102;-46
2023/12/03 00:16:17;;;;;;;86.93;22.30;;;;;;;1.19;100.00;100260.81;4970628;28;20046;-44
2023/12/03 00:18:44;;;;;;;104.90;19.98;;;;;;;1.21;100.00;100264.03;4966836;28;20097;-44
2023/12/03 00:21:11;;;;;;;93.28;18.67;;;;;;;1.23;100.00;100262.66;4951878;29;20113;-44
2023/12/03 00:23:39;;;;;;;62.70;17.27;;;;;;;1.24;100.00;100260.72;4946537;28;20051;-42
2023/12/03 00:26:06;;;;;;;66.97;17.52;;;;;;;1.23;100.00;100261.81;4970435;28;20176;-44
2023/12/03 00:28:34;;;;;;;77.18;18.52;;;;;;;1.23;100.00;100256.38;4964838;28;20055;-43
2023/12/03 00:31:01;;;;;;;75.13;16.23;;;;;;;1.22;100.00;100258.28;4970745;28;20046;-44
2023/12/03 00:33:28;;;;;;;62.40;16.48;;;;;;;1.20;100.00;100252.31;4950562;29;20569;-45
2023/12/03 00:35:57;;;;;;;49.33;14.80;;;;;;;1.22;100.00;100262.91;4951454;29;20098;-43
2023/12/03 00:38:25;;;;;;;63.00;16.80;;;;;;;1.23;100.00;100254.47;4951530;29;20047;-45
2023/12/03 00:40:54;;;;;;;38.58;15.55;;;;;;;1.22;100.00;100252.81;4951725;29;20044;-43
2023/12/03 00:43:21;;;;;;;59.47;14.65;;;;;;;1.23;100.00;100253.66;4951488;29;20102;-44
2023/12/03 00:45:51;;;;;;;73.03;16.27;;;;;;;1.23;100.00;100243.56;4951503;29;20181;-43
2023/12/03 00:48:19;;;;;;;68.18;15.60;;;;;;;1.22;100.00;100238.38;4951624;29;20205;-44
2023/12/03 00:50:47;;;;;;;68.65;15.85;;;;;;;1.21;100.00;100228.59;4950621;29;20054;-44
2023/12/03 00:53:15;;;;;;;42.83;15.70;;;;;;;1.20;100.00;100232.41;4951607;29;20059;-45
2023/12/03 00:55:42;;;;;;;71.65;14.63;;;;;;;1.18;100.00;100224.56;4951376;29;20094;-43
2023/12/03 00:58:10;;;;;;;89.15;15.20;;;;;;;1.16;100.00;100217.78;4964897;28;20043;-43
2023/12/03 01:00:38;;;;;;;43.45;14.27;;;;;;;1.12;100.00;100224.91;4970778;28;20047;-45
2023/12/03 01:03:05;;;;;;;110.25;17.80;;;;;;;1.10;100.00;100217.03;4970129;28;20447;-42
2023/12/03 01:05:33;;;;;;;62.47;14.55;;;;;;;1.10;100.00;100222.50;4969864;28;20058;-42
2023/12/03 01:08:00;;;;;;;57.28;14.80;;;;;;;1.08;100.00;100213.00;4969882;28;20624;-43
2023/12/03 01:10:27;;;;;;;73.32;18.13;;;;;;;1.10;100.00;100213.50;4970495;28;20449;-45
2023/12/03 01:12:55;;;;;;;54.45;15.70;;;;;;;1.10;100.00;100210.78;4969780;28;20590;-43
2023/12/03 01:15:23;;;;;;;58.20;17.58;;;;;;;1.11;100.00;100209.69;4967396;28;20102;-43
2023/12/03 01:17:50;;;;;;;71.50;16.48;;;;;;;1.10;100.00;100214.31;4966614;28;20129;-42
2023/12/03 01:20:18;;;;;;;46.22;13.20;;;;;;;1.10;100.00;100205.31;4969625;28;20440;-43
2023/12/03 01:22:45;;;;;;;62.38;17.30;;;;;;;1.12;100.00;100200.38;4969473;28;20051;-43
2023/12/03 01:25:12;;;;;;;63.38;16.75;;;;;;;1.12;100.00;100214.00;4951826;28;20096;-43
2023/12/03 01:27:40;;;;;;;56.15;16.70;;;;;;;1.14;100.00;100211.78;4969446;28;20093;-44
2023/12/03 01:30:07;;;;;;;51.83;15.88;;;;;;;1.17;100.00;100222.09;4969611;28;20598;-42
2023/12/03 01:32:35;;;;;;;51.83;15.48;;;;;;;1.20;100.00;100232.41;4970002;28;20046;-45
2023/12/03 01:35:04;;;;;;;75.18;16.13;;;;;;;1.20;100.00;100227.78;4982044;28;20042;-42
2023/12/03 01:37:32;;;;;;;65.20;16.80;;;;;;;1.20;100.00;100226.97;4969076;28;20105;-44
2023/12/03 01:40:00;;;;;;;52.38;14.45;;;;;;;1.20;100.00;100226.97;4969242;28;20118;-42
2023/12/03 01:42:27;;;;;;;50.60;14.15;;;;;;;1.20;100.00;100235.16;4969783;28;20046;-42
2023/12/03 01:44:55;;;;;;;96.55;16.08;;;;;;;1.20;100.00;100233.25;4968945;28;20059;-44
2023/12/03 01:47:22;;;;;;;73.05;18.48;;;;;;;1.20;100.00;100238.69;4968920;28;20058;-41
2023/12/03 01:49:50;;;;;;;113.72;21.13;;;;;;;1.17;100.00;100238.47;4967929;28;20093;-42
2023/12/03 01:52:18;;;;;;;49.22;14.98;;;;;;;1.15;100.00;100240.69;4968748;28;20054;-42
2023/12/03 01:54:45;;;;;;;54.00;16.02;;;;;;;1.15;100.00;100229.78;4959933;28;20046;-44
2023/12/03 01:57:13;;;;;;;72.15;14.40;;;;;;;1.17;100.00;100239.28;4968674;28;20109;-41
2023/12/03 01:59:41;;;;;;;63.33;15.13;;;;;;;1.17;100.00;100238.47;4966529;28;20133;-43
2023/12/03 02:02:08;;;;;;;72.63;14.95;;;;;;;1.20;100.00;100237.88;4968203;28;20448;-41
2023/12/03 02:04:36;;;;;;;78.80;16.45;;;;;;;1.20;100.00;100238.69;4967648;28;20043;-41
2023/12/03 02:07:03;;;;;;;65.65;14.30;;;;;;;1.18;100.00;100234.63;4948512;28;20043;-42
2023/12/03 02:09:31;;;;;;;72.57;17.00;;;;;;;1.19;100.00;100231.59;4968598;28;20847;-44
2023/12/03 02:11:59;;;;;;;79.43;17.13;;;;;;;1.18;100.00;100234.63;4968629;28;20051;-43
2023/12/03 02:14:27;;;;;;;71.32;16.27;;;;;;;1.18;100.00;100235.47;4968397;28;20049;-45
2023/12/03 02:16:54;;;;;;;59.35;15.80;;;;;;;1.21;100.00;100232.16;4968518;28;20062;-44
2023/12/03 02:19:21;;;;;;;67.05;16.45;;;;;;;1.24;100.00;100228.78;4966781;28;20039;-45
2023/12/03 02:21:49;;;;;;;64.97;16.50;;;;;;;1.28;100.00;100239.13;4968501;28;20488;-43
2023/12/03 02:24:16;;;;;;;74.20;16.35;;;;;;;1.27;100.00;100226.59;4968753;28;20046;-43
2023/12/03 02:26:44;;;;;;;54.47;15.60;;;;;;;1.26;100.00;100225.78;4968920;28;20116;-42
2023/12/03 02:29:11;;;;;;;66.25;15.55;;;;;;;1.27;100.00;100226.59;4968430;28;20051;-46
2023/12/03 02:31:38;;;;;;;71.25;16.45;;;;;;;1.27;100.00;100243.78;4968583;28;20100;-43
2023/12/03 02:34:08;;;;;;;94.10;17.65;;;;;;;1.26;100.00;100235.88;4968094;28;20043;-41
2023/12/03 02:36:36;;;;;;;32.08;13.25;;;;;;;1.27;100.00;100232.06;4953139;28;20074;-44
2023/12/03 02:39:05;;;;;;;68.90;16.45;;;;;;;1.26;100.00;100227.72;4969128;28;20101;-42
2023/12/03 02:41:32;;;;;;;46.50;14.68;;;;;;;1.26;100.00;100238.59;4969219;28;20090;-43
2023/12/03 02:44:01;;;;;;;67.25;15.88;;;;;;;1.27;100.00;100232.06;4968182;28;20051;-42
2023/12/03 02:46:29;;;;;;;48.40;14.40;;;;;;;1.25;100.00;100226.88;4968531;28;20054;-42
2023/12/03 02:48:56;;;;;;;58.17;16.85;;;;;;;1.26;100.00;100225.78;4968263;28;20066;-41
2023/12/03 02:51:24;;;;;;;55.30;16.77;;;;;;;1.25;100.00;100226.88;4961771;28;20106;-46
2023/12/03 02:53:51;;;;;;;54.95;18.25;;;;;;;1.22;100.00;100230.19;4959164;28;20055;-43
2023/12/03 02:56:19;;;;;;;49.63;15.18;;;;;;;1.24;100.00;100233.47;4956674;28;20050;-43
2023/12/03 02:58:46;;;;;;;33.72;13.90;;;;;;;1.24;100.00;100226.06;4967983;28;20517;-42
2023/12/03 03:01:13;;;;;;;45.53;14.40;;;;;;;1.21;100.00;100221.25;5025236;23;20074;-43
2023/12/03 03:03:41;;;;;;;51.53;14.43;;;;;;;1.19;100.00;100226.16;4949975;28;20090;-45
2023/12/03 03:06:08;;;;;;;43.40;14.10;;;;;;;1.18;100.00;100218.28;4949016;29;20086;-39
2023/12/03 03:08:36;;;;;;;44.60;12.95;;;;;;;1.16;100.00;100215.06;4948568;29;20520;-39
2023/12/03 03:11:03;;;;;;;44.15;13.23;;;;;;;1.15;100.00;100214.22;4949265;29;20638;-42
2023/12/03 03:13:31;;;;;;;50.03;14.57;;;;;;;1.18;100.00;100218.28;4948602;29;20043;-41
2023/12/03 03:15:58;;;;;;;42.75;14.80;;;;;;;1.18;100.00;100210.91;4948553;29;20074;-40
2023/12/03 03:18:25;;;;;;;37.95;15.40;;;;;;;1.18;100.00;100207.38;4949085;29;20457;-40
2023/12/03 03:20:53;;;;;;;50.28;15.52;;;;;;;1.18;100.00;100207.38;4968284;28;20047;-41
2023/12/03 03:23:20;;;;;;;31.80;12.30;;;;;;;1.21;100.00;100209.50;4967456;28;20052;-42
2023/12/03 03:25:47;;;;;;;34.28;12.60;;;;;;;1.21;100.00;100201.34;4968435;28;20047;-39
2023/12/03 03:28:15;;;;;;;51.40;12.90;;;;;;;1.21;100.00;100212.25;4967465;28;20050;-42
2023/12/03 03:30:42;;;;;;;51.95;14.73;;;;;;;1.18;100.00;100210.09;4968969;28;20058;-39
2023/12/03 03:33:10;;;;;;;63.10;13.85;;;;;;;1.18;100.00;100194.56;4954984;28;20061;-39
2023/12/03 03:35:37;;;;;;;59.10;13.52;;;;;;;1.16;100.00;100190.50;4971694;28;20051;-40
2023/12/03 03:38:04;;;;;;;56.08;12.80;;;;;;;1.10;100.00;100186.25;4961713;28;20054;-41
2023/12/03 03:40:32;;;;;;;24.60;10.10;;;;;;;1.05;100.00;100183.59;4972354;28;20051;-46
2023/12/03 03:42:59;;;;;;;51.40;13.38;;;;;;;1.01;100.00;100190.72;4970853;28;20121;-42
2023/12/03 03:45:26;;;;;;;35.42;11.32;;;;;;;0.99;100.00;100192.94;4974149;28;20055;-40
2023/12/03 03:47:54;;;;;;;40.58;12.70;;;;;;;0.99;100.00;100198.41;4973793;28;20046;-39
2023/12/03 03:50:21;;;;;;;64.90;14.57;;;;;;;0.98;100.00;100197.56;4984502;28;20043;-41
2023/12/03 03:52:48;;;;;;;69.97;14.40;;;;;;;0.98;100.00;100192.13;4952186;28;20055;-46
2023/12/03 03:55:16;;;;;;;47.60;12.98;;;;;;;0.99;100.00;100198.41;4970104;28;20066;-38
2023/12/03 03:57:43;;;;;;;48.70;12.80;;;;;;;0.99;100.00;100195.66;4974674;28;20110;-39
2023/12/03 04:00:11;;;;;;;38.90;12.73;;;;;;;1.00;100.00;100189.13;4970991;28;20496;-40
2023/12/03 04:02:38;;;;;;;41.38;12.57;;;;;;;0.99;100.00;100193.75;4969860;28;20051;-40
2023/12/03 04:05:07;;;;;;;58.15;15.50;;;;;;;1.00;100.00;100175.50;4964293;28;20459;-39
2023/12/03 04:07:35;;;;;;;37.22;13.60;;;;;;;1.00;100.00;100178.22;4970842;28;20055;-39
2023/12/03 04:10:02;;;;;;;76.15;16.83;;;;;;;1.00;100.00;100175.50;4957786;28;20062;-40
2023/12/03 04:12:29;;;;;;;58.08;14.77;;;;;;;0.99;100.00;100171.13;4971119;28;20113;-40
2023/12/03 04:14:57;;;;;;;41.42;12.75;;;;;;;0.95;100.00;100173.66;4970863;28;20109;-39
2023/12/03 04:17:24;;;;;;;48.10;13.50;;;;;;;0.90;100.00;100168.25;4969428;28;20105;-39
2023/12/03 04:19:51;;;;;;;70.03;14.65;;;;;;;0.90;100.00;100170.22;4970297;28;20428;-39
2023/12/03 04:22:19;;;;;;;42.53;13.40;;;;;;;0.87;100.00;100162.63;4970843;28;20059;-39
2023/12/03 04:24:46;;;;;;;52.20;15.07;;;;;;;0.88;100.00;100177.84;4970817;28;20485;-39
2023/12/03 04:27:14;;;;;;;41.05;14.48;;;;;;;0.89;100.00;100176.75;4970535;28;20059;-41
2023/12/03 04:29:41;;;;;;;35.63;13.98;;;;;;;0.89;100.00;100165.84;4970104;28;20114;-39
2023/12/03 04:32:09;;;;;;;47.25;14.88;;;;;;;0.88;100.00;100164.22;4970111;28;20086;-40
2023/12/03 04:34:39;;;;;;;54.95;15.60;;;;;;;0.87;100.00;100178.97;4970582;28;20047;-39
2023/12/03 04:37:06;;;;;;;46.17;14.23;;;;;;;0.84;100.00;100163.19;4969873;28;20086;-39
2023/12/03 04:39:34;;;;;;;54.47;14.55;;;;;;;0.85;100.00;100168.34;4970800;28;20105;-39
2023/12/03 04:42:02;;;;;;;32.30;12.55;;;;;;;0.83;100.00;100156.13;4968539;28;20516;-39
2023/12/03 04:44:31;;;;;;;42.72;14.70;;;;;;;0.83;100.00;100150.66;4970201;28;20562;-39
2023/12/03 04:46:58;;;;;;;64.63;16.55;;;;;;;0.83;100.00;100150.66;4970143;28;20051;-40
2023/12/03 04:49:27;;;;;;;82.60;16.13;;;;;;;0.81;100.00;100164.59;4970847;28;20063;-39
2023/12/03 04:51:54;;;;;;;42.40;14.15;;;;;;;0.80;100.00;100156.72;4969422;28;20500;-39
2023/12/03 04:54:21;;;;;;;64.35;14.82;;;;;;;0.82;100.00;100155.31;4970836;28;20055;-39
2023/12/03 04:56:50;;;;;;;48.05;13.68;;;;;;;0.82;100.00;100162.69;4970611;28;20569;-41
2023/12/03 04:59:17;;;;;;;44.92;14.20;;;;;;;0.84;100.00;100163.19;4970100;28;20113;-42
2023/12/03 05:01:45;;;;;;;55.97;15.93;;;;;;;0.87;100.00;100165.34;4969434;28;20047;-45
2023/12/03 05:04:12;;;;;;;48.53;15.70;;;;;;;0.88;100.00;100170.47;4969888;28;20455;-39
2023/12/03 05:06:40;;;;;;;49.85;15.18;;;;;;;0.92;100.00;100165.25;4970314;28;20059;-39
2023/12/03 05:09:09;;;;;;;36.47;14.63;;;;;;;0.95;100.00;100153.78;4970173;28;20077;-42
2023/12/03 05:11:40;;;;;;;29.48;12.82;;;;;;;0.90;100.00;100156.59;4969717;28;20505;-39
2023/12/03 05:14:08;;;;;;;42.08;12.38;;;;;;;0.90;100.00;100162.03;4969550;28;20101;-39
2023/12/03 05:16:36;;;;;;;32.25;12.52;;;;;;;0.87;100.00;100149.00;4969747;28;20042;-39
2023/12/03 05:19:05;;;;;;;39.58;13.27;;;;;;;0.87;100.00;100146.28;4969606;28;20054;-38
2023/12/03 05:21:32;;;;;;;36.92;13.63;;;;;;;0.89;100.00;100138.59;4969947;28;20113;-39
2023/12/03 05:24:00;;;;;;;52.40;15.50;;;;;;;0.91;100.00;100141.81;4969758;28;20101;-39
2023/12/03 05:26:27;;;;;;;56.40;13.25;;;;;;;0.91;100.00;100141.81;4970194;28;20101;-39
2023/12/03 05:28:54;;;;;;;43.90;14.80;;;;;;;0.88;100.00;100145.16;4968847;28;20407;-39
2023/12/03 05:31:22;;;;;;;39.63;15.55;;;;;;;0.88;100.00;100142.41;4969635;28;20050;-38
2023/12/03 05:33:49;;;;;;;35.97;15.27;;;;;;;0.86;100.00;100139.19;4969131;28;20117;-39
2023/12/03 05:36:23;;;;;;;35.03;13.98;;;;;;;0.84;100.00;100136.78;4969097;28;20046;-39
2023/12/03 05:38:53;;;;;;;39.58;14.93;;;;;;;0.86;100.00;100144.63;4969163;28;20473;-39
2023/12/03 05:41:20;;;;;;;35.90;13.73;;;;;;;0.88;100.00;100147.88;4969450;28;20072;-42
2023/12/03 05:43:48;;;;;;;34.45;14.98;;;;;;;0.90;100.00;100137.50;4969600;28;20078;-39
2023/12/03 05:46:15;;;;;;;36.90;15.25;;;;;;;0.89;100.00;100144.88;4967946;28;20747;-42
2023/12/03 05:48:43;;;;;;;54.38;15.73;;;;;;;0.88;100.00;100145.16;4967463;28;20051;-39
2023/12/03 05:51:10;;;;;;;32.35;14.65;;;;;;;0.87;100.00;100143.53;4968672;28;20838;-39
2023/12/03 05:53:39;;;;;;;33.20;13.65;;;;;;;0.87;100.00;100151.72;4968070;28;20046;-39
2023/12/03 05:56:07;;;;;;;34.53;14.52;;;;;;;0.90;100.00;100157.38;4968619;28;20102;-38
2023/12/03 05:58:34;;;;;;;36.70;14.93;;;;;;;0.90;100.00;100151.13;4968715;28;20058;-39
2023/12/03 06:01:01;;;;;;;35.78;15.57;;;;;;;0.91;100.00;100141.81;4969938;28;20460;-40
2023/12/03 06:03:29;;;;;;;37.30;15.43;;;;;;;0.90;100.00;100151.91;4956301;28;20050;-39
2023/12/03 06:05:56;;;;;;;29.67;13.13;;;;;;;0.92;100.00;100151.63;4968907;28;20053;-40
2023/12/03 06:08:24;;;;;;;31.95;13.95;;;;;;;0.92;100.00;100149.72;4982083;28;20054;-39
2023/12/03 06:10:52;;;;;;;32.88;15.52;;;;;;;0.94;100.00;100130.34;4975970;28;20054;-39
2023/12/03 06:13:20;;;;;;;38.72;14.52;;;;;;;0.94;100.00;100130.34;4968294;28;20097;-39
2023/12/03 06:15:47;;;;;;;28.77;13.55;;;;;;;0.91;100.00;100128.22;4969861;28;20050;-40
2023/12/03 06:18:15;;;;;;;33.00;14.55;;;;;;;0.91;100.00;100125.47;4968095;28;20432;-40
2023/12/03 06:20:42;;;;;;;30.58;14.43;;;;;;;0.88;100.00;100131.50;4968594;28;20303;-40
2023/12/03 06:23:11;;;;;;;31.58;15.55;;;;;;;0.87;100.00;100141.63;4968858;28;20058;-40
2023/12/03 06:25:40;;;;;;;34.38;15.32;;;;;;;0.88;100.00;100142.41;4969708;28;20065;-42
2023/12/03 06:28:07;;;;;;;28.05;13.75;;;;;;;0.90;100.00;100134.78;4968112;28;20046;-40
2023/12/03 06:30:35;;;;;;;30.42;13.98;;;;;;;0.93;100.00;100129.53;4968680;28;20050;-39
2023/12/03 06:33:03;;;;;;;31.02;13.85;;;;;;;0.94;100.00;100130.34;4969092;28;20051;-40
2023/12/03 06:35:31;;;;;;;34.17;16.52;;;;;;;0.97;100.00;100137.94;4968296;28;20117;-43
2023/12/03 06:37:59;;;;;;;30.95;14.00;;;;;;;0.99;100.00;100135.72;4969407;28;20047;-39
2023/12/03 06:40:26;;;;;;;32.83;15.88;;;;;;;0.99;100.00;100133.78;4969000;28;20047;-42
2023/12/03 06:42:54;;;;;;;35.97;15.63;;;;;;;1.00;100.00;100124.53;4967767;28;20094;-42
2023/12/03 06:45:21;;;;;;;35.88;15.32;;;;;;;1.01;100.00;100119.88;4969141;28;20058;-40
2023/12/03 06:47:48;;;;;;;33.40;16.42;;;;;;;1.00;100.00;100118.25;4968196;28;20590;-39
2023/12/03 06:50:16;;;;;;;35.00;15.75;;;;;;;1.00;100.00;100127.25;4968685;28;20661;-39
2023/12/03 06:52:43;;;;;;;31.08;14.27;;;;;;;0.99;100.00;100114.72;4968267;28;20447;-43
2023/12/03 06:55:12;;;;;;;28.13;13.68;;;;;;;0.98;100.00;100115.81;4968055;28;20047;-39
2023/12/03 06:57:39;;;;;;;26.42;14.48;;;;;;;0.96;100.00;100106.31;4968433;28;20125;-39
2023/12/03 07:00:07;;;;;;;29.40;14.00;;;;;;;0.95;100.00;100104.72;4968484;28;20511;-39
2023/12/03 07:02:34;;;;;;;28.85;13.85;;;;;;;0.92;100.00;100106.13;4968301;28;20066;-39
2023/12/03 07:05:02;;;;;;;32.05;15.50;;;;;;;0.90;100.00;100108.31;4968381;28;20453;-40
2023/12/03 07:07:29;;;;;;;25.75;13.73;;;;;;;0.88;100.00;100115.97;4971857;28;20061;-43
2023/12/03 07:09:56;;;;;;;30.17;13.50;;;;;;;0.86;100.00;100120.13;4971727;28;20058;-40
2023/12/03 07:12:25;;;;;;;28.33;14.05;;;;;;;0.85;100.00;100118.50;4972031;28;20047;-38
2023/12/03 07:14:52;;;;;;;26.20;13.18;;;;;;;0.86;100.00;100118.19;4971976;28;20574;-41
2023/12/03 07:17:20;;;;;;;32.85;15.50;;;;;;;0.87;100.00;100114.38;4971846;28;20508;-39
2023/12/03 07:19:47;;;;;;;29.77;16.10;;;;;;;0.90;100.00;100111.03;4972475;28;20051;-40
2023/12/03 07:22:15;;;;;;;26.35;12.98;;;;;;;0.90;100.00;100108.31;4971818;28;20786;-43
2023/12/03 07:24:43;;;;;;;30.25;12.98;;;;;;;0.91;100.00;100115.41;4972253;28;20050;-39
2023/12/03 07:27:10;;;;;;;26.75;13.43;;;;;;;0.88;100.00;100104.28;4971303;28;20042;-41
2023/12/03 07:29:38;;;;;;;31.25;13.05;;;;;;;0.90;100.00;100099.34;4971589;28;20043;-40
2023/12/03 07:32:06;;;;;;;30.20;13.00;;;;;;;0.91;100.00;100098.22;4970768;28;20056;-40
2023/12/03 07:34:33;;;;;;;32.40;12.73;;;;;;;0.94;100.00;100105.81;4970730;28;20137;-43
2023/12/03 07:37:02;;;;;;;28.83;13.43;;;;;;;0.94;100.00;100092.19;4972062;28;20051;-39
2023/12/03 07:39:29;;;;;;;31.35;14.00;;;;;;;0.94;100.00;100103.91;4971453;28;20050;-41
2023/12/03 07:41:57;;;;;;;25.35;13.23;;;;;;;0.95;100.00;100104.72;4971171;28;20046;-40
2023/12/03 07:44:24;;;;;;;28.13;13.00;;;;;;;0.90;100.00;100113.75;4971660;28;20516;-41
2023/12/03 07:46:53;;;;;;;28.85;14.32;;;;;;;0.90;100.00;100112.97;4970401;28;20050;-45
2023/12/03 07:49:20;;;;;;;28.23;12.70;;;;;;;0.92;100.00;100111.56;4970737;28;20043;-40
2023/12/03 07:51:48;;;;;;;27.63;14.00;;;;;;;0.93;100.00;100109.63;4971404;28;20416;-39
2023/12/03 07:54:16;;;;;;;28.00;13.30;;;;;;;0.94;100.00;100108.53;4975994;28;20047;-39
2023/12/03 07:56:44;;;;;;;31.60;14.85;;;;;;;0.95;100.00;100111.00;4971093;28;20055;-39
2023/12/03 07:59:11;;;;;;;29.75;13.35;;;;;;;0.95;100.00;100111.00;4970477;28;20046;-39
2023/12/03 08:01:38;;;;;;;29.15;13.77;;;;;;;0.96;100.00;100117.22;4970197;28;20051;-40
2023/12/03 08:04:06;;;;;;;22.85;11.80;;;;;;;0.98;100.00;100120.47;4970460;28;20046;-39
2023/12/03 08:06:33;;;;;;;26.60;13.93;;;;;;;1.00;100.00;100118.25;4982373;28;20057;-40
2023/12/03 08:09:01;;;;;;;27.20;13.35;;;;;;;1.00;100.00;100123.72;4973577;28;20046;-41
2023/12/03 08:11:28;;;;;;;26.42;13.25;;;;;;;0.99;100.00;100113.91;4970278;28;20077;-39
2023/12/03 08:13:56;;;;;;;29.05;14.13;;;;;;;1.01;100.00;100103.50;4970676;28;20050;-39
2023/12/03 08:16:24;;;;;;;29.00;13.75;;;;;;;1.03;100.00;100106.78;4970772;28;20049;-39
2023/12/03 08:18:51;;;;;;;44.38;19.13;;;;;;;1.02;100.00;100110.59;4969270;28;20058;-39
2023/12/03 08:21:19;;;;;;;70.80;20.83;;;;;;;1.01;100.00;100098.88;4970243;28;20054;-40
2023/12/03 08:23:46;;;;;;;79.03;21.38;;;;;;;1.01;100.00;100109.78;4971070;28;20047;-40
2023/12/03 08:26:14;;;;;;;70.50;21.88;;;;;;;1.01;100.00;100115.22;4970715;28;20125;-44
2023/12/03 08:28:41;;;;;;;82.88;21.70;;;;;;;1.04;100.00;100105.66;4971009;28;20106;-39
2023/12/03 08:31:09;;;;;;;94.68;24.83;;;;;;;1.03;100.00;100109.50;4969623;28;20171;-41
2023/12/03 08:33:36;;;;;;;102.28;22.80;;;;;;;1.06;100.00;100111.63;4970539;28;20047;-39
2023/12/03 08:36:03;;;;;;;67.32;23.80;;;;;;;1.08;100.00;100114.88;4970507;28;20512;-39
2023/12/03 08:38:31;;;;;;;66.38;22.08;;;;;;;1.11;100.00;100108.81;4970544;28;20047;-39
2023/12/03 08:40:58;;;;;;;66.32;21.55;;;;;;;1.12;100.00;100115.88;4970449;28;20085;-39
2023/12/03 08:43:25;;;;;;;69.50;21.25;;;;;;;1.13;100.00;100118.31;4969851;28;20289;-40
2023/12/03 08:45:53;;;;;;;61.33;21.95;;;;;;;1.17;100.00;100121.22;4970211;28;20563;-39
2023/12/03 08:48:20;;;;;;;64.90;20.15;;;;;;;1.19;100.00;100122.56;4970154;28;20074;-39
2023/12/03 08:50:48;;;;;;;62.55;21.70;;;;;;;1.21;100.00;100120.38;4940383;28;20058;-39
2023/12/03 08:53:15;;;;;;;72.25;21.73;;;;;;;1.22;100.00;100121.16;4970278;28;20082;-41
2023/12/03 08:55:42;;;;;;;61.88;21.38;;;;;;;1.23;100.00;100114.59;4970248;28;20078;-43
2023/12/03 08:58:10;;;;;;;67.90;22.70;;;;;;;1.24;100.00;100118.94;4969665;28;20050;-40
2023/12/03 09:00:37;;;;;;;68.40;22.27;;;;;;;1.24;100.00;100121.69;4969346;28;20043;-39
2023/12/03 09:03:05;;;;;;;75.40;23.85;;;;;;;1.26;100.00;100122.19;4968604;28;20095;-39
2023/12/03 09:05:32;;;;;;;82.45;25.23;;;;;;;1.29;100.00;100120.78;4969653;28;20076;-39
2023/12/03 09:08:00;;;;;;;75.00;25.58;;;;;;;1.30;100.00;100112.28;4969773;28;20650;-40
2023/12/03 09:10:27;;;;;;;64.55;22.30;;;;;;;1.30;100.00;100115.00;4969806;28;20448;-39
2023/12/03 09:12:54;;;;;;;104.20;26.88;;;;;;;1.33;100.00;100113.59;4969389;28;20500;-40
2023/12/03 09:15:22;;;;;;;77.68;23.42;;;;;;;1.34;100.00;100118.78;4969947;28;20571;-39
2023/12/03 09:17:49;;;;;;;69.30;24.35;;;;;;;1.36;100.00;100111.09;4970046;28;20047;-41
2023/12/03 09:20:17;;;;;;;832.22;157.82;;;;;;;1.38;100.00;100125.22;4969845;28;20579;-39
2023/12/03 09:22:45;;;;;;;86.28;25.20;;;;;;;1.40;100.00;100123.03;4969704;28;20073;-40
2023/12/03 09:25:12;;;;;;;98.50;24.60;;;;;;;1.43;100.00;100119.69;4970064;28;20055;-38
2023/12/03 09:27:39;;;;;;;66.25;22.50;;;;;;;1.45;100.00;100114.75;4970013;28;20060;-42
2023/12/03 09:30:08;;;;;;;79.70;21.45;;;;;;;1.46;100.00;100105.44;4951750;28;20094;-40
2023/12/03 09:32:36;;;;;;;61.95;21.38;;;;;;;1.46;100.00;100105.44;4969860;28;20098;-39
2023/12/03 09:35:03;;;;;;;78.30;24.23;;;;;;;1.48;100.00;100096.97;4969744;28;20053;-39
2023/12/03 09:37:31;;;;;;;80.55;21.80;;;;;;;1.49;100.00;100099.41;4969904;28;20058;-40
2023/12/03 09:39:58;;;;;;;64.38;20.95;;;;;;;1.50;100.00;100101.03;4969328;28;20098;-39
2023/12/03 09:42:28;;;;;;;84.85;23.42;;;;;;;1.51;100.00;100097.16;4971755;28;20042;-39
2023/12/03 09:45:04;;;;;;;55.70;19.13;;;;;;;1.49;100.00;100099.41;4968675;28;20109;-39
2023/12/03 09:47:35;;;;;;;57.15;18.35;;;;;;;1.49;100.00;100095.84;4969561;28;20047;-40
2023/12/03 09:50:04;;;;;;;47.38;17.58;;;;;;;1.49;100.00;100093.94;4968001;28;20102;-39
2023/12/03 09:52:35;;;;;;;43.40;16.40;;;;;;;1.49;100.00;100096.66;4969117;28;20105;-40
2023/12/03 09:55:04;;;;;;;39.97;15.50;;;;;;;1.50;100.00;100100.22;4968236;28;20501;-39
2023/12/03 09:57:33;;;;;;;41.38;17.58;;;;;;;1.50;100.00;100103.75;4972387;28;20058;-42
2023/12/03 10:00:07;;;;;;;39.90;16.70;;;;;;;1.50;100.00;100102.94;4969288;28;20054;-39
2023/12/03 10:02:35;;;;;;;92.82;48.05;;;;;;;1.52;100.00;100101.53;4962842;28;20582;-39
2023/12/03 10:05:03;;;;;;;64.85;35.58;;;;;;;1.57;100.00;100106.88;4969149;28;20054;-39
2023/12/03 10:07:30;;;;;;;45.70;23.13;;;;;;;1.61;100.00;100102.47;4969127;28;20043;-39
2023/12/03 10:09:59;;;;;;;46.28;19.25;;;;;;;1.65;100.00;100102.66;4968399;28;20058;-39
2023/12/03 10:12:41;;;;;;;42.30;19.63;;;;;;;1.68;100.00;100102.88;4982169;28;20098;-39
2023/12/03 10:15:10;;;;;;;37.95;18.25;;;;;;;1.69;100.00;100109.94;4968468;28;20097;-39
2023/12/03 10:17:38;;;;;;;33.60;17.60;;;;;;;1.72;100.00;100114.78;4967918;28;20056;-39
2023/12/03 10:20:22;;;;;;;37.85;17.63;;;;;;;1.74;100.00;100111.75;4967776;28;20054;-39
2023/12/03 10:22:51;;;;;;;40.20;17.08;;;;;;;1.76;100.00;100110.34;4968320;28;20059;-39
2023/12/03 10:25:35;;;;;;;35.00;18.48;;;;;;;1.80;100.00;100116.03;4968877;28;20101;-39
2023/12/03 10:28:06;;;;;;;93.88;40.97;;;;;;;1.84;100.00;100109.66;4950984;28;20720;-40
2023/12/03 10:30:37;;;;;;;96.15;41.35;;;;;;;1.96;100.00;100108.34;4969086;28;20051;-39
2023/12/03 10:33:05;;;;;;;66.22;32.05;;;;;;;2.06;100.00;100102.66;4968338;28;20578;-40
2023/12/03 10:35:34;;;;;;;40.38;20.02;;;;;;;2.16;100.00;100105.19;4968219;28;20043;-40
2023/12/03 10:38:09;;;;;;;26.48;15.93;;;;;;;2.24;100.00;100108.00;4969498;28;20063;-39
2023/12/03 10:40:37;;;;;;;36.15;20.00;;;;;;;2.36;100.00;100112.94;4969506;28;20046;-43
2023/12/03 10:43:05;;;;;;;25.92;13.80;;;;;;;2.45;100.00;100113.84;4953547;28;20047;-39
2023/12/03 10:45:34;;;;;;;23.38;13.73;;;;;;;2.56;100.00;100107.03;4972810;28;20141;-39
2023/12/03 10:48:01;;;;;;;29.90;13.48;;;;;;;2.63;100.00;100112.06;4972851;28;20068;-41
2023/12/03 10:50:30;;;;;;;21.98;11.65;;;;;;;2.67;100.00;100108.44;4971935;28;20121;-42
2023/12/03 10:52:59;;;;;;;23.98;11.60;;;;;;;2.72;100.00;100110.22;4968845;28;20043;-40
2023/12/03 10:55:27;;;;;;;19.08;10.57;;;;;;;2.75;100.00;100109.63;4972158;28;20054;-41
2023/12/03 10:58:00;;;;;;;17.85;10.05;;;;;;;2.78;100.00;100095.34;4972041;28;20053;-41
2023/12/03 11:00:55;;;;;;;14.63;8.30;;;;;;;2.80;100.00;100088.44;4972687;28;20061;-39
2023/12/03 11:03:55;;;;;;;14.73;9.10;;;;;;;2.75;100.00;100094.03;4953757;29;20457;-39
2023/12/03 11:06:24;;;;;;;13.55;8.05;;;;;;;2.71;100.00;100103.94;4952579;29;20524;-40
2023/12/03 11:08:53;;;;;;;14.45;8.35;;;;;;;2.71;100.00;100092.19;4953201;29;20169;-40
2023/12/03 11:11:21;;;;;;;10.30;6.68;;;;;;;2.71;100.00;100086.72;4952591;29;20524;-40
2023/12/03 11:13:51;;;;;;;12.25;7.30;;;;;;;2.73;100.00;100085.31;4953088;29;20039;-40